MMAS/AGU METAR and TAF weather

Enter ICAO airport designator
Station Type Date Time Source
MMAS METAR 2020/08/06 00:40 UTC NOAA

MMAS 060040Z 17004KT 9SM SCT030CB SCT100 BKN200 23/14 A3020 RMK 8/963 HZY


Station Type Date Time Source
MMAS Decoded METAR 2020/08/06 00:40 UTC NOAA

Aguascalientes, Ags., Mexico (MMAS) 21-53N 102-18W
Aug 05, 2020 - 08:40 PM EDT / 2020.08.06 0040 UTC
Wind: from the S (170 degrees) at 5 MPH (4 KT):0
Visibility: 9 mile(s):0
Sky conditions: mostly cloudy
Weather: Cumulonimbus clouds observed
Temperature: 73 F (23 C)
Dew Point: 57 F (14 C)
Relative Humidity: 56%
Pressure (altimeter): 30.2 in. Hg (1022 hPa)
ob: MMAS 060040Z 17004KT 9SM SCT030CB SCT100 BKN200 23/14 A3020 RMK 8/963 HZY
cycle: 0

Station Type Date Time Source
MMAS TAF 2020/08/05 18:07 UTC NOAA

TAF MMAS 051700Z 0518/0618 06005KT P6SM SCT030 BKN090
FM060600 09008KT 6SM HZ BKN020 BKN090
TEMPO 0609/0613 4SM TSRA BKN010CB

Example: see airport list